createdAt,value
2023-03-29T00:02:09.365Z,3.84
2023-03-29T00:04:36.393Z,3.75
2023-03-29T00:07:04.880Z,3.89
2023-03-29T00:09:33.302Z,3.97
2023-03-29T00:12:01.554Z,3.88
2023-03-29T00:14:30.939Z,3.88
2023-03-29T00:16:58.817Z,3.82
2023-03-29T00:19:26.165Z,3.71
2023-03-29T00:21:52.968Z,3.67
2023-03-29T00:24:21.361Z,3.68
2023-03-29T00:26:48.628Z,3.72
2023-03-29T00:29:16.116Z,3.74
2023-03-29T00:31:45.905Z,3.64
2023-03-29T00:34:12.766Z,3.61
2023-03-29T00:36:40.291Z,3.64
2023-03-29T00:39:07.355Z,3.63
2023-03-29T00:41:34.079Z,3.61
2023-03-29T00:44:03.462Z,3.70
2023-03-29T00:46:31.905Z,3.74
2023-03-29T00:49:09.655Z,3.68
2023-03-29T00:51:39.872Z,3.73
2023-03-29T00:54:14.768Z,3.71
2023-03-29T00:56:44.936Z,3.77
2023-03-29T00:59:18.901Z,3.84
2023-03-29T01:01:55.198Z,3.67
2023-03-29T01:05:00.860Z,3.71
2023-03-29T01:07:35.291Z,3.73
2023-03-29T01:10:10.922Z,3.73
2023-03-29T01:12:44.075Z,3.71
2023-03-29T01:15:13.981Z,3.77
2023-03-29T01:17:43.581Z,3.75
2023-03-29T01:20:17.201Z,3.76
2023-03-29T01:23:16.017Z,3.85
2023-03-29T01:26:27.111Z,3.79
2023-03-29T01:29:11.705Z,3.89
2023-03-29T01:31:41.965Z,3.78
2023-03-29T01:34:31.756Z,3.80
2023-03-29T01:37:07.620Z,3.98
2023-03-29T01:39:35.126Z,3.88
2023-03-29T01:42:16.684Z,3.94
2023-03-29T01:44:55.487Z,3.87
2023-03-29T01:47:53.528Z,3.89
2023-03-29T01:50:38.974Z,3.92
2023-03-29T01:53:15.338Z,4.00
2023-03-29T01:55:48.677Z,3.98
2023-03-29T01:58:17.228Z,4.02
2023-03-29T02:00:45.394Z,4.13
2023-03-29T02:03:14.906Z,4.02
2023-03-29T02:05:42.727Z,3.98
2023-03-29T02:08:12.680Z,4.04
2023-03-29T02:10:40.634Z,4.03
2023-03-29T02:13:07.570Z,4.03
2023-03-29T02:15:34.320Z,3.91
2023-03-29T02:18:01.492Z,3.92
2023-03-29T02:20:33.080Z,4.13
2023-03-29T02:23:14.399Z,4.07
2023-03-29T02:25:43.358Z,4.03
2023-03-29T02:28:10.053Z,3.98
2023-03-29T02:31:19.118Z,4.00
2023-03-29T02:33:57.135Z,4.10
2023-03-29T02:36:30.634Z,4.18
2023-03-29T02:38:59.994Z,4.03
2023-03-29T02:41:27.649Z,4.07
2023-03-29T02:43:57.042Z,4.08
2023-03-29T02:46:24.317Z,4.13
2023-03-29T02:48:53.282Z,4.13
2023-03-29T02:51:24.117Z,4.18
2023-03-29T02:54:15.537Z,4.18
2023-03-29T02:56:54.455Z,4.26
2023-03-29T02:59:22.658Z,4.10
2023-03-29T03:01:50.107Z,4.07
2023-03-29T03:04:18.484Z,4.08
2023-03-29T03:06:45.312Z,3.94
2023-03-29T03:09:12.152Z,3.94
2023-03-29T03:11:39.540Z,3.97
2023-03-29T03:14:07.574Z,3.95
2023-03-29T03:16:34.903Z,3.92
2023-03-29T03:19:01.968Z,3.98
2023-03-29T03:21:28.767Z,3.90
2023-03-29T03:23:55.884Z,3.89
2023-03-29T03:26:24.955Z,3.99
2023-03-29T03:28:51.687Z,3.92
2023-03-29T03:31:19.606Z,3.90
2023-03-29T03:33:46.577Z,3.82
2023-03-29T03:36:14.064Z,3.84
2023-03-29T03:38:41.946Z,3.85
2023-03-29T03:41:09.084Z,3.78
2023-03-29T03:43:36.327Z,3.91
2023-03-29T03:46:03.300Z,3.90
2023-03-29T03:48:30.101Z,3.82
2023-03-29T03:50:58.341Z,3.73
2023-03-29T03:53:27.311Z,3.90
2023-03-29T03:55:58.461Z,3.92
2023-03-29T03:58:25.962Z,3.98
2023-03-29T04:00:52.782Z,3.85
2023-03-29T04:03:19.991Z,3.83
2023-03-29T04:05:47.411Z,3.95
2023-03-29T04:08:14.985Z,3.97
2023-03-29T04:10:41.970Z,4.03
2023-03-29T04:13:08.772Z,3.98
2023-03-29T04:15:41.342Z,4.02
2023-03-29T04:18:08.649Z,4.64
2023-03-29T04:20:35.907Z,4.09
2023-03-29T04:23:02.709Z,4.00
2023-03-29T04:25:29.886Z,4.02
2023-03-29T04:27:56.720Z,3.98
2023-03-29T04:30:23.616Z,3.90
2023-03-29T04:32:50.736Z,3.86
2023-03-29T04:35:17.908Z,3.89
2023-03-29T04:37:44.792Z,3.85
2023-03-29T04:40:14.428Z,3.90
2023-03-29T04:42:47.174Z,3.86
2023-03-29T04:45:18.148Z,3.98
2023-03-29T04:47:45.885Z,3.89
2023-03-29T04:50:13.857Z,3.89
2023-03-29T04:52:41.463Z,3.80
2023-03-29T04:55:09.201Z,3.83
2023-03-29T04:57:35.958Z,3.91
2023-03-29T05:00:08.356Z,3.85
2023-03-29T05:02:35.009Z,3.87
2023-03-29T05:05:02.107Z,3.82
2023-03-29T05:07:29.837Z,3.86
2023-03-29T05:09:56.907Z,3.83
2023-03-29T05:12:23.702Z,3.99
2023-03-29T05:14:50.457Z,3.90
2023-03-29T05:17:17.164Z,3.87
2023-03-29T05:19:43.911Z,4.02
2023-03-29T05:22:10.682Z,4.06
2023-03-29T05:24:37.521Z,3.95
2023-03-29T05:27:04.990Z,4.02
2023-03-29T05:29:32.849Z,4.05
2023-03-29T05:31:59.887Z,4.06
2023-03-29T05:34:27.282Z,4.16
2023-03-29T05:36:53.956Z,4.02
2023-03-29T05:39:21.162Z,4.12
2023-03-29T05:41:47.926Z,4.10
2023-03-29T05:44:14.745Z,4.07
2023-03-29T05:46:41.891Z,4.12
2023-03-29T05:49:08.738Z,4.09
2023-03-29T05:51:35.498Z,4.04
2023-03-29T05:54:02.287Z,4.08
2023-03-29T05:56:29.075Z,4.05
2023-03-29T05:58:58.783Z,4.22
2023-03-29T06:01:25.902Z,4.24
2023-03-29T06:03:52.948Z,4.31
2023-03-29T06:06:21.282Z,4.24
2023-03-29T06:08:48.139Z,4.16
2023-03-29T06:11:15.780Z,4.07
2023-03-29T06:13:42.562Z,4.15
2023-03-29T06:16:10.596Z,4.17
2023-03-29T06:18:40.362Z,4.23
2023-03-29T06:21:09.388Z,4.32
2023-03-29T06:23:36.868Z,4.83
2023-03-29T06:26:04.431Z,4.94
2023-03-29T06:28:31.806Z,5.03
2023-03-29T06:31:03.420Z,4.96
2023-03-29T06:33:32.548Z,4.45
2023-03-29T06:35:59.715Z,4.74
2023-03-29T06:38:28.406Z,4.87
2023-03-29T06:41:07.212Z,5.11
2023-03-29T06:43:34.745Z,5.05
2023-03-29T06:46:02.057Z,5.00
2023-03-29T06:48:29.171Z,5.18
2023-03-29T06:50:56.667Z,5.16
2023-03-29T06:53:23.566Z,5.13
2023-03-29T06:55:52.440Z,5.15
2023-03-29T06:58:19.733Z,5.32
2023-03-29T07:00:47.424Z,5.57
2023-03-29T07:03:20.289Z,5.68
2023-03-29T07:05:47.649Z,5.67
2023-03-29T07:08:16.614Z,5.53
2023-03-29T07:10:47.331Z,5.52
2023-03-29T07:13:15.594Z,5.43
2023-03-29T07:15:43.512Z,6.02
2023-03-29T07:18:12.499Z,5.56
2023-03-29T07:20:40.514Z,5.61
2023-03-29T07:23:09.396Z,5.68
2023-03-29T07:25:36.864Z,5.51
2023-03-29T07:28:04.264Z,5.61
2023-03-29T07:30:32.641Z,5.62
2023-03-29T07:32:59.724Z,5.78
2023-03-29T07:35:27.097Z,5.81
2023-03-29T07:37:58.410Z,6.02
2023-03-29T07:40:26.111Z,6.13
2023-03-29T07:42:55.415Z,6.16
2023-03-29T07:45:26.734Z,6.08
2023-03-29T07:47:59.796Z,6.17
2023-03-29T07:50:27.609Z,6.27
2023-03-29T07:52:54.714Z,6.37
2023-03-29T07:55:22.241Z,6.28
2023-03-29T07:57:49.835Z,6.46
2023-03-29T08:00:18.979Z,6.49
2023-03-29T08:02:47.833Z,6.30
2023-03-29T08:05:18.997Z,6.09
2023-03-29T08:07:50.518Z,6.58
2023-03-29T08:10:19.254Z,6.48
2023-03-29T08:12:47.486Z,6.54
2023-03-29T08:15:14.827Z,6.43
2023-03-29T08:17:42.002Z,6.70
2023-03-29T08:20:11.360Z,6.91
2023-03-29T08:22:38.875Z,7.03
2023-03-29T08:25:07.342Z,7.08
2023-03-29T08:27:34.917Z,6.82
2023-03-29T08:30:01.884Z,6.93
2023-03-29T08:32:28.621Z,6.82
2023-03-29T08:34:55.621Z,6.95
2023-03-29T08:37:24.543Z,6.71
2023-03-29T08:39:51.737Z,6.75
2023-03-29T08:42:24.673Z,6.73
2023-03-29T08:44:57.507Z,6.95
2023-03-29T08:47:45.914Z,6.93
2023-03-29T08:50:13.980Z,7.22
2023-03-29T08:52:55.841Z,7.47
2023-03-29T08:55:31.939Z,7.54
2023-03-29T08:58:01.484Z,7.85
2023-03-29T09:00:44.445Z,8.11
2023-03-29T09:03:19.831Z,8.22
2023-03-29T09:06:08.128Z,8.34
2023-03-29T09:08:43.713Z,8.42
2023-03-29T09:11:38.234Z,8.52
2023-03-29T09:14:23.748Z,8.75
2023-03-29T09:17:02.712Z,9.18
2023-03-29T09:19:41.893Z,9.76
2023-03-29T09:22:28.128Z,9.75
2023-03-29T09:25:00.841Z,9.70
2023-03-29T09:27:34.316Z,9.91
2023-03-29T09:30:26.097Z,9.42
2023-03-29T09:32:56.660Z,9.93
2023-03-29T09:35:29.044Z,9.80
2023-03-29T09:37:56.958Z,9.55
2023-03-29T09:40:39.794Z,9.60
2023-03-29T09:43:11.052Z,9.61
2023-03-29T09:45:38.890Z,9.80
2023-03-29T09:48:15.006Z,9.74
2023-03-29T09:50:46.096Z,9.77
2023-03-29T09:53:15.848Z,9.54
2023-03-29T09:55:44.795Z,9.78
2023-03-29T09:58:16.199Z,9.62
2023-03-29T10:00:43.206Z,9.53
2023-03-29T10:03:10.928Z,9.69
2023-03-29T10:05:38.155Z,9.26
2023-03-29T10:08:19.655Z,9.10
2023-03-29T10:10:47.336Z,9.04
2023-03-29T10:13:22.925Z,8.95
2023-03-29T10:16:07.508Z,9.04
2023-03-29T10:18:40.706Z,9.45
2023-03-29T10:21:11.673Z,8.92
2023-03-29T10:23:38.469Z,9.32
2023-03-29T10:26:11.668Z,9.31
2023-03-29T10:28:38.838Z,9.22
2023-03-29T10:31:08.300Z,9.02
2023-03-29T10:33:36.389Z,8.90
2023-03-29T10:36:06.684Z,9.21
2023-03-29T10:38:36.440Z,9.33
2023-03-29T10:41:10.294Z,9.08
2023-03-29T10:43:42.886Z,9.25
2023-03-29T10:46:31.871Z,9.46
2023-03-29T10:49:06.054Z,9.42
2023-03-29T10:51:34.475Z,9.36
2023-03-29T10:54:02.511Z,9.36
2023-03-29T10:56:39.252Z,9.11
2023-03-29T10:59:30.186Z,9.10
2023-03-29T11:02:15.392Z,9.44
2023-03-29T11:05:07.311Z,9.52
2023-03-29T11:07:56.297Z,9.91
2023-03-29T11:10:40.848Z,10.14
2023-03-29T11:13:16.699Z,9.61
2023-03-29T11:15:55.916Z,9.52
2023-03-29T11:19:13.760Z,9.24
2023-03-29T11:21:46.254Z,9.01
2023-03-29T11:24:58.286Z,9.27
2023-03-29T11:28:02.598Z,9.51
2023-03-29T11:30:38.324Z,9.59
2023-03-29T11:33:43.127Z,9.42
2023-03-29T11:36:20.947Z,9.56
2023-03-29T11:39:17.338Z,9.86
2023-03-29T11:41:48.318Z,9.90
2023-03-29T11:44:24.069Z,9.98
2023-03-29T11:47:00.428Z,9.66
2023-03-29T11:49:34.359Z,9.78
2023-03-29T11:52:07.515Z,9.66
2023-03-29T11:54:41.006Z,9.41
2023-03-29T11:57:33.023Z,9.45
2023-03-29T12:00:12.472Z,9.59
2023-03-29T12:02:52.000Z,9.75
2023-03-29T12:05:23.399Z,9.63
2023-03-29T12:08:18.962Z,9.54
2023-03-29T12:10:53.177Z,9.53
2023-03-29T12:13:33.537Z,9.70
2023-03-29T12:16:08.843Z,9.50
2023-03-29T12:18:41.477Z,9.41
2023-03-29T12:21:20.082Z,9.06
2023-03-29T12:23:48.084Z,9.40
2023-03-29T12:26:46.208Z,9.29
2023-03-29T12:29:32.998Z,9.41
2023-03-29T12:32:12.769Z,9.44
2023-03-29T12:34:45.673Z,9.31
2023-03-29T12:37:32.061Z,9.49
2023-03-29T12:40:13.187Z,9.84
2023-03-29T12:42:52.845Z,9.91
2023-03-29T12:45:34.974Z,9.83
2023-03-29T12:48:02.015Z,10.27
2023-03-29T12:50:36.906Z,10.65
2023-03-29T12:53:30.845Z,10.94
2023-03-29T12:56:00.603Z,11.09
2023-03-29T12:58:37.163Z,10.57
2023-03-29T13:01:07.224Z,10.73
2023-03-29T13:03:40.385Z,11.00
2023-03-29T13:06:10.454Z,10.78
2023-03-29T13:08:43.273Z,10.65
2023-03-29T13:11:27.505Z,10.62
2023-03-29T13:13:54.301Z,10.55
2023-03-29T13:16:34.189Z,10.48
2023-03-29T13:19:40.088Z,10.65
2023-03-29T13:22:40.455Z,10.26
2023-03-29T13:25:41.959Z,10.21
2023-03-29T13:28:27.013Z,10.04
2023-03-29T13:31:11.290Z,9.91
2023-03-29T13:34:06.976Z,9.78
2023-03-29T13:37:02.471Z,9.79
2023-03-29T13:39:32.201Z,9.92
2023-03-29T13:42:27.033Z,9.79
2023-03-29T13:45:10.422Z,9.94
2023-03-29T13:47:51.822Z,9.82
2023-03-29T13:50:40.359Z,9.89
2023-03-29T13:53:19.750Z,9.88
2023-03-29T13:55:51.057Z,9.80
2023-03-29T13:58:30.619Z,10.01
2023-03-29T14:01:18.744Z,9.69
2023-03-29T14:03:48.691Z,9.80
2023-03-29T14:06:21.345Z,9.83
2023-03-29T14:08:49.565Z,9.72
2023-03-29T14:11:26.642Z,9.77
2023-03-29T14:13:55.528Z,9.71
2023-03-29T14:16:23.260Z,9.67
2023-03-29T14:18:52.224Z,9.66
2023-03-29T14:21:21.203Z,9.74
2023-03-29T14:23:55.207Z,9.60
2023-03-29T14:26:24.073Z,9.71
2023-03-29T14:28:53.069Z,9.51
2023-03-29T14:31:35.181Z,9.55
2023-03-29T14:34:04.547Z,9.70
2023-03-29T14:36:33.559Z,9.56
2023-03-29T14:39:04.130Z,9.63
2023-03-29T14:41:35.573Z,9.69
2023-03-29T14:44:04.630Z,9.55
2023-03-29T14:46:33.882Z,9.63
2023-03-29T14:49:02.310Z,9.66
2023-03-29T14:51:31.208Z,9.54
2023-03-29T14:54:00.201Z,9.50
2023-03-29T14:56:27.651Z,9.61
2023-03-29T14:58:56.576Z,9.66
2023-03-29T15:01:26.208Z,9.67
2023-03-29T15:04:08.570Z,9.80
2023-03-29T15:06:41.693Z,9.66
2023-03-29T15:09:17.226Z,9.60
2023-03-29T15:11:51.856Z,9.46
2023-03-29T15:14:20.228Z,9.56
2023-03-29T15:16:49.676Z,9.59
2023-03-29T15:19:20.459Z,9.71
2023-03-29T15:21:49.986Z,9.65
2023-03-29T15:24:32.656Z,9.80
2023-03-29T15:27:19.762Z,9.63
2023-03-29T15:29:47.348Z,9.64
2023-03-29T15:32:25.629Z,9.66
2023-03-29T15:35:00.175Z,9.72
2023-03-29T15:37:27.791Z,9.71
2023-03-29T15:39:54.805Z,9.92
2023-03-29T15:42:21.561Z,10.01
2023-03-29T15:44:48.327Z,10.11
2023-03-29T15:47:15.224Z,10.05
2023-03-29T15:49:42.260Z,9.95
2023-03-29T15:52:09.037Z,9.93
2023-03-29T15:54:37.133Z,10.10
2023-03-29T15:57:07.390Z,9.98
2023-03-29T15:59:36.565Z,9.90
2023-03-29T16:02:04.399Z,9.81
2023-03-29T16:04:31.282Z,9.96
2023-03-29T16:06:58.089Z,9.88
2023-03-29T16:09:25.728Z,9.84
2023-03-29T16:11:52.587Z,9.95
2023-03-29T16:14:25.216Z,9.90
2023-03-29T16:16:53.035Z,9.72
2023-03-29T16:19:20.511Z,9.70
2023-03-29T16:21:48.172Z,9.57
2023-03-29T16:24:21.197Z,9.53
2023-03-29T16:26:49.112Z,9.62
2023-03-29T16:29:17.374Z,9.60
2023-03-29T16:31:45.785Z,9.52
2023-03-29T16:34:13.746Z,9.52
2023-03-29T16:36:41.134Z,9.67
2023-03-29T16:39:07.985Z,9.59
2023-03-29T16:41:34.813Z,9.53
2023-03-29T16:44:01.762Z,9.56
2023-03-29T16:46:29.532Z,9.46
2023-03-29T16:48:57.946Z,9.50
2023-03-29T16:51:25.766Z,9.44
2023-03-29T16:53:52.513Z,9.40
2023-03-29T16:56:19.900Z,9.35
2023-03-29T16:58:47.204Z,9.34
2023-03-29T17:01:16.936Z,9.34
2023-03-29T17:03:44.041Z,9.30
2023-03-29T17:06:11.903Z,9.29
2023-03-29T17:08:39.515Z,9.39
2023-03-29T17:11:09.722Z,9.34
2023-03-29T17:13:37.454Z,9.42
2023-03-29T17:16:05.167Z,9.41
2023-03-29T17:18:32.285Z,9.38
2023-03-29T17:20:59.650Z,9.45
2023-03-29T17:23:26.723Z,9.38
2023-03-29T17:25:57.097Z,9.45
2023-03-29T17:28:24.468Z,9.41
2023-03-29T17:30:51.500Z,9.33
2023-03-29T17:33:22.813Z,9.44
2023-03-29T17:35:49.718Z,9.41
2023-03-29T17:38:16.618Z,9.38
2023-03-29T17:40:43.465Z,9.44
2023-03-29T17:43:10.286Z,9.45
2023-03-29T17:45:37.089Z,9.41
2023-03-29T17:48:06.178Z,9.39
2023-03-29T17:50:33.782Z,9.45
2023-03-29T17:53:00.636Z,9.44
2023-03-29T17:55:27.427Z,9.36
2023-03-29T17:57:54.386Z,9.40
2023-03-29T18:00:21.549Z,9.35
2023-03-29T18:02:48.455Z,9.45
2023-03-29T18:05:15.458Z,9.41
2023-03-29T18:07:42.361Z,9.38
2023-03-29T18:10:09.600Z,9.32
2023-03-29T18:12:36.655Z,9.23
2023-03-29T18:15:04.140Z,9.33
2023-03-29T18:17:31.559Z,9.34
2023-03-29T18:19:58.319Z,9.32
2023-03-29T18:22:25.420Z,9.37
2023-03-29T18:24:52.232Z,9.36
2023-03-29T18:27:19.801Z,9.35
2023-03-29T18:29:46.684Z,9.31
2023-03-29T18:32:13.845Z,9.38
2023-03-29T18:34:40.682Z,9.38
2023-03-29T18:37:13.463Z,9.41
2023-03-29T18:39:41.307Z,9.37
2023-03-29T18:42:10.208Z,9.36
2023-03-29T18:44:40.145Z,9.34
2023-03-29T18:47:07.342Z,9.34
2023-03-29T18:49:34.365Z,9.39
2023-03-29T18:52:02.055Z,9.46
2023-03-29T18:54:28.826Z,9.53
2023-03-29T18:56:57.837Z,9.35
2023-03-29T18:59:26.015Z,9.29
2023-03-29T19:01:52.970Z,9.24
2023-03-29T19:04:20.064Z,9.20
2023-03-29T19:06:47.508Z,9.16
2023-03-29T19:09:14.344Z,9.15
2023-03-29T19:11:41.458Z,9.08
2023-03-29T19:14:09.167Z,9.10
2023-03-29T19:16:36.255Z,9.03
2023-03-29T19:19:04.938Z,9.02
2023-03-29T19:21:32.350Z,9.01
2023-03-29T19:24:00.901Z,8.96
2023-03-29T19:26:33.134Z,8.95
2023-03-29T19:29:01.072Z,9.03
2023-03-29T19:31:28.405Z,9.04
2023-03-29T19:33:55.337Z,9.09
2023-03-29T19:36:22.540Z,9.06
2023-03-29T19:38:49.317Z,9.12
2023-03-29T19:41:16.338Z,9.09
2023-03-29T19:43:43.537Z,9.05
2023-03-29T19:46:12.108Z,9.16
2023-03-29T19:48:39.461Z,9.09
2023-03-29T19:51:06.733Z,9.09
2023-03-29T19:53:38.185Z,9.04
2023-03-29T19:56:07.625Z,9.09
2023-03-29T19:58:34.568Z,9.09
2023-03-29T20:01:01.558Z,9.00
2023-03-29T20:03:28.514Z,9.01
2023-03-29T20:05:56.572Z,8.97
2023-03-29T20:08:24.799Z,9.02
2023-03-29T20:11:03.820Z,8.98
2023-03-29T20:13:38.304Z,9.03
2023-03-29T20:16:15.366Z,9.00
2023-03-29T20:18:44.754Z,9.02
2023-03-29T20:21:18.477Z,8.98
2023-03-29T20:23:45.498Z,9.00
2023-03-29T20:26:12.356Z,9.01
2023-03-29T20:28:39.287Z,9.02
2023-03-29T20:31:07.835Z,9.02
2023-03-29T20:33:34.778Z,8.95
2023-03-29T20:36:01.665Z,8.97
2023-03-29T20:38:28.620Z,9.04
2023-03-29T20:40:55.479Z,8.91
2023-03-29T20:43:22.513Z,8.82
2023-03-29T20:45:53.847Z,8.87
2023-03-29T20:48:23.430Z,8.78
2023-03-29T20:50:51.328Z,8.81
2023-03-29T20:53:20.330Z,8.88
2023-03-29T20:55:47.898Z,8.89
2023-03-29T20:58:15.735Z,8.80
2023-03-29T21:00:43.548Z,8.86
2023-03-29T21:03:10.853Z,8.77
2023-03-29T21:05:38.750Z,8.79
2023-03-29T21:08:05.700Z,8.90
2023-03-29T21:10:32.793Z,8.88
2023-03-29T21:13:00.228Z,8.88
2023-03-29T21:15:29.431Z,8.87
2023-03-29T21:17:56.443Z,8.85
2023-03-29T21:20:24.215Z,8.83
2023-03-29T21:22:51.603Z,8.79
2023-03-29T21:25:18.903Z,8.80
2023-03-29T21:27:46.098Z,8.85
2023-03-29T21:30:13.067Z,8.90
2023-03-29T21:32:40.430Z,8.80
2023-03-29T21:35:08.044Z,8.79
2023-03-29T21:37:35.195Z,8.89
2023-03-29T21:40:05.693Z,8.87
2023-03-29T21:42:36.221Z,8.79
2023-03-29T21:45:03.136Z,8.78
2023-03-29T21:47:30.415Z,8.88
2023-03-29T21:49:57.287Z,8.85
2023-03-29T21:52:24.200Z,8.78
2023-03-29T21:54:50.960Z,8.81
2023-03-29T21:57:17.810Z,8.73
2023-03-29T21:59:44.840Z,8.76
2023-03-29T22:02:11.923Z,8.77
2023-03-29T22:04:38.750Z,8.75
2023-03-29T22:07:06.488Z,8.77
2023-03-29T22:09:35.236Z,8.75
2023-03-29T22:12:03.482Z,8.77
2023-03-29T22:14:35.171Z,8.70
2023-03-29T22:17:05.926Z,8.71
2023-03-29T22:19:39.738Z,8.64
2023-03-29T22:22:13.509Z,8.51
2023-03-29T22:24:41.612Z,9.01
2023-03-29T22:27:08.508Z,9.49
2023-03-29T22:29:35.444Z,9.56
2023-03-29T22:32:02.468Z,9.12
2023-03-29T22:34:29.976Z,8.80
2023-03-29T22:36:56.787Z,8.64
2023-03-29T22:39:23.602Z,8.60
2023-03-29T22:41:50.852Z,8.64
2023-03-29T22:44:17.551Z,8.70
2023-03-29T22:46:44.364Z,8.68
2023-03-29T22:49:11.808Z,8.74
2023-03-29T22:51:38.963Z,8.66
2023-03-29T22:54:05.992Z,8.53
2023-03-29T22:56:32.853Z,8.59
2023-03-29T22:58:59.675Z,8.66
2023-03-29T23:01:26.611Z,8.73
2023-03-29T23:03:53.381Z,8.73
2023-03-29T23:06:20.412Z,8.64
2023-03-29T23:08:47.158Z,8.57
2023-03-29T23:11:13.974Z,8.56
2023-03-29T23:13:40.935Z,8.67
2023-03-29T23:16:08.244Z,8.63
2023-03-29T23:18:37.290Z,8.61
2023-03-29T23:21:05.870Z,8.57
2023-03-29T23:23:33.497Z,8.70
2023-03-29T23:26:01.171Z,8.62
2023-03-29T23:28:30.370Z,8.64
2023-03-29T23:31:07.165Z,8.60
2023-03-29T23:33:36.105Z,8.64
2023-03-29T23:36:05.223Z,8.59
2023-03-29T23:38:34.219Z,8.63
2023-03-29T23:41:03.433Z,8.53
2023-03-29T23:43:35.472Z,8.53
2023-03-29T23:46:03.978Z,8.53
2023-03-29T23:48:31.975Z,8.55
2023-03-29T23:50:58.744Z,8.47
2023-03-29T23:53:28.734Z,8.55
2023-03-29T23:56:05.840Z,8.60
2023-03-29T23:58:35.487Z,8.59
